Time;durP1;ratioP1;P1;durP2;ratioP2;P2;SDS_P1;SDS_P2;PMS_P1;PMS_P2;Temp;Humidity;BMP_temperature;BMP_pressure;BME280_temperature;BME280_humidity;BME280_pressure;Samples;Min_cycle;Max_cycle;Signal;HPM_P1;HPM_P2
2021/07/18 00:01:41;;;;;;;;;;;;;;;;;;5024293;28;1376;-54
2021/07/18 00:04:06;;;;;;;;;;;;;;;;;;5025095;28;1600;-55
2021/07/18 00:06:32;;;;;;;;;;;;;;;;;;5023717;28;1642;-54
2021/07/18 00:08:57;;;;;;;;;;;;;;;;;;5026163;28;1977;-55
2021/07/18 00:11:22;;;;;;;;;;;;;;;;;;5023630;28;1690;-55
2021/07/18 00:13:47;;;;;;;;;;;;;;;;;;5026922;28;1343;-55
2021/07/18 00:16:12;;;;;;;;;;;;;;;;;;5026306;28;1193;-55
2021/07/18 00:18:37;;;;;;;;;;;;;;;;;;5023060;28;1624;-53
2021/07/18 00:21:03;;;;;;;;;;;;;;;;;;5024782;28;1007;-55
2021/07/18 00:23:28;;;;;;;;;;;;;;;;;;5024150;28;1300;-55
2021/07/18 00:25:53;;;;;;;;;;;;;;;;;;5024692;28;1631;-55
2021/07/18 00:28:18;;;;;;;;;;;;;;;;;;5024398;28;1411;-55
2021/07/18 00:30:43;;;;;;;;;;;;;;;;;;5025500;28;1902;-55
2021/07/18 00:33:09;;;;;;;;;;;;;;;;;;5022698;28;1627;-51
2021/07/18 00:35:34;;;;;;;;;;;;;;;;;;5024783;28;1037;-54
2021/07/18 00:37:59;;;;;;;;;;;;;;;;;;5017953;28;1591;-54
2021/07/18 00:40:24;;;;;;;;;;;;;;;;;;5023739;28;1689;-55
2021/07/18 00:42:50;;;;;;;;;;;;;;;;;;5025387;28;1200;-55
2021/07/18 00:45:15;;;;;;;;;;;;;;;;;;5024521;28;1712;-55
2021/07/18 00:47:40;;;;;;;;;;;;;;;;;;5017834;28;1671;-54
2021/07/18 00:50:12;;;;;;;;;;;;;;;;;;5020618;28;1906;-55
2021/07/18 00:52:38;;;;;;;;;;;;;;;;;;5021706;28;1430;-54
2021/07/18 00:55:06;;;;;;;;;;;;;;;;;;5022692;28;2003;-55
2021/07/18 00:57:32;;;;;;;;;;;;;;;;;;5019573;28;1308;-51
2021/07/18 00:59:57;;;;;;;;;;;;;;;;;;5003022;28;1354;-54
2021/07/18 01:02:22;;;;;;;;;;;;;;;;;;5019831;28;1355;-52
2021/07/18 01:04:47;;;;;;;;;;;;;;;;;;5018833;28;1571;-55
2021/07/18 01:07:12;;;;;;;;;;;;;;;;;;5022658;28;1157;-55
2021/07/18 01:09:38;;;;;;;;;;;;;;;;;;5020920;28;1977;-55
2021/07/18 01:12:03;;;;;;;;;;;;;;;;;;5022559;28;1103;-55
2021/07/18 01:14:28;;;;;;;;;;;;;;;;;;5013101;28;1535;-55
2021/07/18 01:16:53;;;;;;;;;;;;;;;;;;5001891;28;1352;-55
2021/07/18 01:19:19;;;;;;;;;;;;;;;;;;5022169;28;1301;-55
2021/07/18 01:21:44;;;;;;;;;;;;;;;;;;5020972;28;1552;-55
2021/07/18 01:24:10;;;;;;;;;;;;;;;;;;5019167;28;1615;-53
2021/07/18 01:26:35;;;;;;;;;;;;;;;;;;5004258;28;1083;-55
2021/07/18 01:29:00;;;;;;;;;;;;;;;;;;5004235;28;1899;-55
2021/07/18 01:31:25;;;;;;;;;;;;;;;;;;5019477;28;1470;-55
2021/07/18 01:33:50;;;;;;;;;;;;;;;;;;5019493;28;1663;-54
2021/07/18 01:36:15;;;;;;;;;;;;;;;;;;5014164;28;1744;-55
2021/07/18 01:38:41;;;;;;;;;;;;;;;;;;5021982;28;1292;-55
2021/07/18 01:41:06;;;;;;;;;;;;;;;;;;5019010;28;1521;-54
2021/07/18 01:43:31;;;;;;;;;;;;;;;;;;5021085;28;1169;-55
2021/07/18 01:45:56;;;;;;;;;;;;;;;;;;5020816;28;1383;-55
2021/07/18 01:48:21;;;;;;;;;;;;;;;;;;5019570;28;1651;-55
2021/07/18 01:50:47;;;;;;;;;;;;;;;;;;5022170;28;1906;-55
2021/07/18 01:53:12;;;;;;;;;;;;;;;;;;5022282;28;1181;-55
2021/07/18 01:55:37;;;;;;;;;;;;;;;;;;5017869;28;1607;-54
2021/07/18 01:58:02;;;;;;;;;;;;;;;;;;5019232;28;1395;-55
2021/07/18 02:00:28;;;;;;;;;;;;;;;;;;5018254;28;1574;-55
2021/07/18 02:02:53;;;;;;;;;;;;;;;;;;5022089;28;1078;-54
2021/07/18 02:05:19;;;;;;;;;;;;;;;;;;5016298;28;1562;-55
2021/07/18 02:07:44;;;;;;;;;;;;;;;;;;5020244;28;1140;-55
2021/07/18 02:10:10;;;;;;;;;;;;;;;;;;5018483;28;1973;-52
2021/07/18 02:12:35;;;;;;;;;;;;;;;;;;5003478;28;1642;-54
2021/07/18 02:15:01;;;;;;;;;;;;;;;;;;5022317;28;1169;-55
2021/07/18 02:17:26;;;;;;;;;;;;;;;;;;5020561;28;1134;-55
2021/07/18 02:19:51;;;;;;;;;;;;;;;;;;5018982;28;1540;-55
2021/07/18 02:22:18;;;;;;;;;;;;;;;;;;5021895;28;1244;-55
2021/07/18 02:24:43;;;;;;;;;;;;;;;;;;4998722;28;1674;-55
2021/07/18 02:27:10;;;;;;;;;;;;;;;;;;5019126;28;1197;-54
2021/07/18 02:29:35;;;;;;;;;;;;;;;;;;5019381;28;1898;-55
2021/07/18 02:32:00;;;;;;;;;;;;;;;;;;5019592;28;1224;-55
2021/07/18 02:34:25;;;;;;;;;;;;;;;;;;5018253;28;1533;-55
2021/07/18 02:36:50;;;;;;;;;;;;;;;;;;5018784;28;1337;-55
2021/07/18 02:39:15;;;;;;;;;;;;;;;;;;5019211;28;1560;-55
2021/07/18 02:41:41;;;;;;;;;;;;;;;;;;5018861;28;1098;-55
2021/07/18 02:44:06;;;;;;;;;;;;;;;;;;5018877;28;1395;-54
2021/07/18 02:46:32;;;;;;;;;;;;;;;;;;5016928;28;1784;-55
2021/07/18 02:48:57;;;;;;;;;;;;;;;;;;5019336;28;1902;-55
2021/07/18 02:51:22;;;;;;;;;;;;;;;;;;5019290;28;1379;-55
2021/07/18 02:53:47;;;;;;;;;;;;;;;;;;5018238;28;1576;-55
2021/07/18 02:56:12;;;;;;;;;;;;;;;;;;5015984;28;2253;-54
2021/07/18 02:58:38;;;;;;;;;;;;;;;;;;5020364;28;1368;-55
2021/07/18 03:01:03;;;;;;;;;;;;;;;;;;5017384;28;1431;-55
2021/07/18 03:03:28;;;;;;;;;;;;;;;;;;5018820;28;1616;-55
2021/07/18 03:05:53;;;;;;;;;;;;;;;;;;5019932;28;1121;-55
2021/07/18 03:08:18;;;;;;;;;;;;;;;;;;5020943;28;1314;-55
2021/07/18 03:10:44;;;;;;;;;;;;;;;;;;5017039;28;1906;-55
2021/07/18 03:13:09;;;;;;;;;;;;;;;;;;5020501;28;1232;-55
2021/07/18 03:15:34;;;;;;;;;;;;;;;;;;5017463;28;1462;-55
2021/07/18 03:18:01;;;;;;;;;;;;;;;;;;5019477;28;1619;-55
2021/07/18 03:20:26;;;;;;;;;;;;;;;;;;5019442;28;1288;-54
2021/07/18 03:22:52;;;;;;;;;;;;;;;;;;5020522;28;1186;-55
2021/07/18 03:25:17;;;;;;;;;;;;;;;;;;5016681;28;1572;-55
2021/07/18 03:27:42;;;;;;;;;;;;;;;;;;5020862;28;1177;-55
2021/07/18 03:30:08;;;;;;;;;;;;;;;;;;5014870;28;1961;-54
2021/07/18 03:32:33;;;;;;;;;;;;;;;;;;5019658;28;1114;-53
2021/07/18 03:34:59;;;;;;;;;;;;;;;;;;5019335;28;1185;-55
2021/07/18 03:37:24;;;;;;;;;;;;;;;;;;5020728;28;1095;-55
2021/07/18 03:39:49;;;;;;;;;;;;;;;;;;5011528;28;2056;-55
2021/07/18 03:42:14;;;;;;;;;;;;;;;;;;5019831;28;1109;-55
2021/07/18 03:44:40;;;;;;;;;;;;;;;;;;5018436;28;1557;-55
2021/07/18 03:47:06;;;;;;;;;;;;;;;;;;5019946;28;1572;-55
2021/07/18 03:49:31;;;;;;;;;;;;;;;;;;5017567;28;1967;-54
2021/07/18 03:51:56;;;;;;;;;;;;;;;;;;5019097;28;1121;-55
2021/07/18 03:54:21;;;;;;;;;;;;;;;;;;5017754;28;1598;-55
2021/07/18 03:56:47;;;;;;;;;;;;;;;;;;5021664;28;1202;-55
2021/07/18 03:59:12;;;;;;;;;;;;;;;;;;5018382;28;1439;-55
2021/07/18 04:01:37;;;;;;;;;;;;;;;;;;5016296;28;1288;-55
2021/07/18 04:04:03;;;;;;;;;;;;;;;;;;5017976;28;1556;-55
2021/07/18 04:06:28;;;;;;;;;;;;;;;;;;5017840;28;1295;-55
2021/07/18 04:08:53;;;;;;;;;;;;;;;;;;5021021;28;2053;-55
2021/07/18 04:11:18;;;;;;;;;;;;;;;;;;5016915;28;1611;-55
2021/07/18 04:13:43;;;;;;;;;;;;;;;;;;5019783;28;1455;-55
2021/07/18 04:16:09;;;;;;;;;;;;;;;;;;5020486;28;1174;-55
2021/07/18 04:18:34;;;;;;;;;;;;;;;;;;5016101;28;1625;-55
2021/07/18 04:20:59;;;;;;;;;;;;;;;;;;5012156;28;1527;-55
2021/07/18 04:23:25;;;;;;;;;;;;;;;;;;5018704;28;1111;-55
2021/07/18 04:25:50;;;;;;;;;;;;;;;;;;5017122;28;1608;-55
2021/07/18 04:28:15;;;;;;;;;;;;;;;;;;5018724;28;1407;-55
2021/07/18 04:30:40;;;;;;;;;;;;;;;;;;5018484;28;1898;-55
2021/07/18 04:33:05;;;;;;;;;;;;;;;;;;5017421;28;1656;-54
2021/07/18 04:35:31;;;;;;;;;;;;;;;;;;5017828;28;1398;-55
2021/07/18 04:37:56;;;;;;;;;;;;;;;;;;5020441;28;1077;-54
2021/07/18 04:40:21;;;;;;;;;;;;;;;;;;5017395;28;1608;-55
2021/07/18 04:42:46;;;;;;;;;;;;;;;;;;5023546;28;1184;-55
2021/07/18 04:45:11;;;;;;;;;;;;;;;;;;5017063;28;1528;-55
2021/07/18 04:47:44;;;;;;;;;;;;;;;;;;5022902;28;1109;-55
2021/07/18 04:50:09;;;;;;;;;;;;;;;;;;5018137;28;1981;-55
2021/07/18 04:52:34;;;;;;;;;;;;;;;;;;5023080;28;1181;-55
2021/07/18 04:55:00;;;;;;;;;;;;;;;;;;5018920;28;1587;-54
2021/07/18 04:57:25;;;;;;;;;;;;;;;;;;5022652;28;1678;-55
2021/07/18 04:59:50;;;;;;;;;;;;;;;;;;5023666;28;1239;-54
2021/07/18 05:02:15;;;;;;;;;;;;;;;;;;5022043;28;1284;-55
2021/07/18 05:04:40;;;;;;;;;;;;;;;;;;5016285;28;1761;-50
2021/07/18 05:07:07;;;;;;;;;;;;;;;;;;5021270;28;1027;-54
2021/07/18 05:09:33;;;;;;;;;;;;;;;;;;5019821;28;1977;-55
2021/07/18 05:11:58;;;;;;;;;;;;;;;;;;5022689;28;1327;-55
2021/07/18 05:14:23;;;;;;;;;;;;;;;;;;5020056;28;1414;-55
2021/07/18 05:16:48;;;;;;;;;;;;;;;;;;5021848;28;1094;-55
2021/07/18 05:19:13;;;;;;;;;;;;;;;;;;5018148;28;1556;-55
2021/07/18 05:21:39;;;;;;;;;;;;;;;;;;5022657;28;1208;-55
2021/07/18 05:24:04;;;;;;;;;;;;;;;;;;5022678;28;1142;-54
2021/07/18 05:26:29;;;;;;;;;;;;;;;;;;5020168;28;1607;-54
2021/07/18 05:28:54;;;;;;;;;;;;;;;;;;5023010;28;1958;-55
2021/07/18 05:31:20;;;;;;;;;;;;;;;;;;5019231;28;1424;-54
2021/07/18 05:33:45;;;;;;;;;;;;;;;;;;5023687;28;1228;-55
2021/07/18 05:36:11;;;;;;;;;;;;;;;;;;5019289;28;1560;-55
2021/07/18 05:38:37;;;;;;;;;;;;;;;;;;5022221;28;1373;-55
2021/07/18 05:41:02;;;;;;;;;;;;;;;;;;5014623;28;1523;-55
2021/07/18 05:43:27;;;;;;;;;;;;;;;;;;5022070;28;1153;-55
2021/07/18 05:45:52;;;;;;;;;;;;;;;;;;5016833;28;1393;-55
2021/07/18 05:48:23;;;;;;;;;;;;;;;;;;5011677;28;1656;-54
2021/07/18 05:50:48;;;;;;;;;;;;;;;;;;5014105;28;1910;-55
2021/07/18 05:53:13;;;;;;;;;;;;;;;;;;5022123;28;1185;-54
2021/07/18 05:55:38;;;;;;;;;;;;;;;;;;5017771;28;1647;-55
2021/07/18 05:58:03;;;;;;;;;;;;;;;;;;5020166;28;1355;-55
2021/07/18 06:00:29;;;;;;;;;;;;;;;;;;5022000;28;1236;-56
2021/07/18 06:02:54;;;;;;;;;;;;;;;;;;5021383;28;1074;-55
2021/07/18 06:05:19;;;;;;;;;;;;;;;;;;5019254;28;1579;-55
2021/07/18 06:07:44;;;;;;;;;;;;;;;;;;5022850;28;1110;-56
2021/07/18 06:10:10;;;;;;;;;;;;;;;;;;5018133;28;1914;-54
2021/07/18 06:12:35;;;;;;;;;;;;;;;;;;5020979;28;1166;-55
2021/07/18 06:15:00;;;;;;;;;;;;;;;;;;5021072;28;1169;-56
2021/07/18 06:17:27;;;;;;;;;;;;;;;;;;5020445;28;1517;-56
2021/07/18 06:19:52;;;;;;;;;;;;;;;;;;5019639;28;1371;-56
2021/07/18 06:22:17;;;;;;;;;;;;;;;;;;5019986;28;1217;-55
2021/07/18 06:24:43;;;;;;;;;;;;;;;;;;5017548;28;1576;-56
2021/07/18 06:27:08;;;;;;;;;;;;;;;;;;5022704;28;1130;-55
2021/07/18 06:29:34;;;;;;;;;;;;;;;;;;5018199;28;1914;-55
2021/07/18 06:31:59;;;;;;;;;;;;;;;;;;5019887;28;1229;-55
2021/07/18 06:34:24;;;;;;;;;;;;;;;;;;5018694;28;1765;-56
2021/07/18 06:36:49;;;;;;;;;;;;;;;;;;5020421;28;1478;-56
2021/07/18 06:39:15;;;;;;;;;;;;;;;;;;5019242;28;1579;-56
2021/07/18 06:41:40;;;;;;;;;;;;;;;;;;5019142;28;1161;-55
2021/07/18 06:44:05;;;;;;;;;;;;;;;;;;5019727;28;1395;-54
2021/07/18 06:46:31;;;;;;;;;;;;;;;;;;5021757;28;1428;-56
2021/07/18 06:48:56;;;;;;;;;;;;;;;;;;5018455;28;1902;-55
2021/07/18 06:51:21;;;;;;;;;;;;;;;;;;5019464;28;1376;-56
2021/07/18 06:53:46;;;;;;;;;;;;;;;;;;5014951;28;1520;-54
2021/07/18 06:56:12;;;;;;;;;;;;;;;;;;5012913;28;1747;-56
2021/07/18 06:58:37;;;;;;;;;;;;;;;;;;5013668;28;1564;-55
2021/07/18 07:01:02;;;;;;;;;;;;;;;;;;5021048;28;1232;-54
2021/07/18 07:03:27;;;;;;;;;;;;;;;;;;5018329;28;1492;-53
2021/07/18 07:05:52;;;;;;;;;;;;;;;;;;5018969;28;1632;-54
2021/07/18 07:08:18;;;;;;;;;;;;;;;;;;5016661;28;1400;-54
2021/07/18 07:10:43;;;;;;;;;;;;;;;;;;5018271;28;1967;-53
2021/07/18 07:13:08;;;;;;;;;;;;;;;;;;5016425;28;1344;-53
2021/07/18 07:15:33;;;;;;;;;;;;;;;;;;5018986;28;1181;-53
2021/07/18 07:17:58;;;;;;;;;;;;;;;;;;5017678;28;1560;-54
2021/07/18 07:20:24;;;;;;;;;;;;;;;;;;5018475;28;1405;-54
2021/07/18 07:22:49;;;;;;;;;;;;;;;;;;5018434;28;1093;-53
2021/07/18 07:25:14;;;;;;;;;;;;;;;;;;5016520;28;1575;-54
2021/07/18 07:27:39;;;;;;;;;;;;;;;;;;5017567;28;1439;-55
2021/07/18 07:30:08;;;;;;;;;;;;;;;;;;5017070;28;1962;-52
2021/07/18 07:32:33;;;;;;;;;;;;;;;;;;5019829;28;1122;-54
2021/07/18 07:34:58;;;;;;;;;;;;;;;;;;5016319;28;1588;-54
2021/07/18 07:37:24;;;;;;;;;;;;;;;;;;5019949;28;1145;-54
2021/07/18 07:39:52;;;;;;;;;;;;;;;;;;5015936;28;1603;-53
2021/07/18 07:42:18;;;;;;;;;;;;;;;;;;5020031;28;1174;-52
2021/07/18 07:44:43;;;;;;;;;;;;;;;;;;5014362;28;1459;-55
2021/07/18 07:47:08;;;;;;;;;;;;;;;;;;5018731;28;1220;-52
2021/07/18 07:49:33;;;;;;;;;;;;;;;;;;5017776;28;1989;-53
2021/07/18 07:51:59;;;;;;;;;;;;;;;;;;5018188;28;1384;-53
2021/07/18 07:54:24;;;;;;;;;;;;;;;;;;5017347;28;1575;-53
2021/07/18 07:56:49;;;;;;;;;;;;;;;;;;5020322;28;1117;-50
2021/07/18 07:59:14;;;;;;;;;;;;;;;;;;5015375;28;1311;-54
2021/07/18 08:01:39;;;;;;;;;;;;;;;;;;5014028;28;1371;-55
2021/07/18 08:04:05;;;;;;;;;;;;;;;;;;5016021;28;1604;-54
2021/07/18 08:06:30;;;;;;;;;;;;;;;;;;5013834;28;1308;-54
2021/07/18 08:08:55;;;;;;;;;;;;;;;;;;5016353;28;1972;-53
2021/07/18 08:11:20;;;;;;;;;;;;;;;;;;5015936;28;1576;-53
2021/07/18 08:13:45;;;;;;;;;;;;;;;;;;5019528;28;1395;-51
2021/07/18 08:16:10;;;;;;;;;;;;;;;;;;5022741;28;1292;-52
2021/07/18 08:18:36;;;;;;;;;;;;;;;;;;5017807;28;1658;-52
2021/07/18 08:21:01;;;;;;;;;;;;;;;;;;5024085;28;1153;-54
2021/07/18 08:23:26;;;;;;;;;;;;;;;;;;5022601;28;1390;-53
2021/07/18 08:25:51;;;;;;;;;;;;;;;;;;5020676;28;1563;-53
2021/07/18 08:28:16;;;;;;;;;;;;;;;;;;5023233;28;1328;-50
2021/07/18 08:30:42;;;;;;;;;;;;;;;;;;5021941;28;1906;-52
2021/07/18 08:33:07;;;;;;;;;;;;;;;;;;5019713;28;1543;-52
2021/07/18 08:35:32;;;;;;;;;;;;;;;;;;5023855;28;1149;-52
2021/07/18 08:37:58;;;;;;;;;;;;;;;;;;5018521;28;1344;-53
2021/07/18 08:40:23;;;;;;;;;;;;;;;;;;5020410;28;1690;-53
2021/07/18 08:42:48;;;;;;;;;;;;;;;;;;5021479;28;1354;-53
2021/07/18 08:45:13;;;;;;;;;;;;;;;;;;5004703;28;1250;-52
2021/07/18 08:47:39;;;;;;;;;;;;;;;;;;5014988;28;1536;-52
2021/07/18 08:50:04;;;;;;;;;;;;;;;;;;5018869;28;1914;-52
2021/07/18 08:52:29;;;;;;;;;;;;;;;;;;5022232;28;1148;-52
2021/07/18 08:54:54;;;;;;;;;;;;;;;;;;5003235;28;1580;-53
2021/07/18 08:57:20;;;;;;;;;;;;;;;;;;5019607;28;1445;-52
2021/07/18 08:59:46;;;;;;;;;;;;;;;;;;5020125;28;1385;-54
2021/07/18 09:02:11;;;;;;;;;;;;;;;;;;5022245;28;1220;-53
2021/07/18 09:04:36;;;;;;;;;;;;;;;;;;5020946;28;1556;-53
2021/07/18 09:07:02;;;;;;;;;;;;;;;;;;5022896;28;1160;-52
2021/07/18 09:09:29;;;;;;;;;;;;;;;;;;4998622;28;1971;-55
2021/07/18 09:11:55;;;;;;;;;;;;;;;;;;5021590;28;1251;-56
2021/07/18 09:14:21;;;;;;;;;;;;;;;;;;5020113;28;1446;-53
2021/07/18 09:16:47;;;;;;;;;;;;;;;;;;5018528;28;1962;-52
2021/07/18 09:19:13;;;;;;;;;;;;;;;;;;5001020;28;1813;-53
2021/07/18 09:21:38;;;;;;;;;;;;;;;;;;5016919;28;1523;-51
2021/07/18 09:24:36;;;;;;;;;;;;;;;;;;5013788;28;1684;-52
2021/07/18 09:27:05;;;;;;;;;;;;;;;;;;4989070;28;1617;-53
2021/07/18 09:29:30;;;;;;;;;;;;;;;;;;5021015;28;1977;-52
2021/07/18 09:32:12;;;;;;;;;;;;;;;;;;5021644;28;1181;-53
2021/07/18 09:34:38;;;;;;;;;;;;;;;;;;5013253;28;1709;-51
2021/07/18 09:37:07;;;;;;;;;;;;;;;;;;5021477;28;1137;-54
2021/07/18 09:39:32;;;;;;;;;;;;;;;;;;5020412;28;1630;-53
2021/07/18 09:41:57;;;;;;;;;;;;;;;;;;5019494;28;1348;-52
2021/07/18 09:44:23;;;;;;;;;;;;;;;;;;5020273;28;1872;-53
2021/07/18 09:46:48;;;;;;;;;;;;;;;;;;5022709;28;1174;-53
2021/07/18 09:49:29;;;;;;;;;;;;;;;;;;5017798;28;1922;-53
2021/07/18 09:52:10;;;;;;;;;;;;;;;;;;5020844;28;1188;-51
2021/07/18 09:54:35;;;;;;;;;;;;;;;;;;4999907;28;1655;-52
2021/07/18 09:57:00;;;;;;;;;;;;;;;;;;5022658;28;1149;-53
2021/07/18 09:59:25;;;;;;;;;;;;;;;;;;5022397;28;1383;-52
2021/07/18 10:01:54;;;;;;;;;;;;;;;;;;5003564;28;1177;-51
2021/07/18 10:04:19;;;;;;;;;;;;;;;;;;5015991;28;1571;-53
2021/07/18 10:06:44;;;;;;;;;;;;;;;;;;5021929;28;1190;-53
2021/07/18 10:09:10;;;;;;;;;;;;;;;;;;5020188;28;1997;-52
2021/07/18 10:11:36;;;;;;;;;;;;;;;;;;5020813;28;1777;-53
2021/07/18 10:14:01;;;;;;;;;;;;;;;;;;5018860;28;1502;-52
2021/07/18 10:16:27;;;;;;;;;;;;;;;;;;5021823;28;1091;-53
2021/07/18 10:18:55;;;;;;;;;;;;;;;;;;5017627;28;1539;-53
2021/07/18 10:21:21;;;;;;;;;;;;;;;;;;5021068;28;1371;-53
2021/07/18 10:23:47;;;;;;;;;;;;;;;;;;5016569;28;1655;-51
2021/07/18 10:26:13;;;;;;;;;;;;;;;;;;5019113;28;1738;-52
2021/07/18 10:28:38;;;;;;;;;;;;;;;;;;5021222;28;1309;-52
2021/07/18 10:31:22;;;;;;;;;;;;;;;;;;4999835;28;1911;-53
2021/07/18 10:33:47;;;;;;;;;;;;;;;;;;5018172;28;1658;-50
2021/07/18 10:36:13;;;;;;;;;;;;;;;;;;5017636;28;1395;-53
2021/07/18 10:38:38;;;;;;;;;;;;;;;;;;5021492;28;1307;-51
2021/07/18 10:41:03;;;;;;;;;;;;;;;;;;5017111;28;1575;-53
2021/07/18 10:43:35;;;;;;;;;;;;;;;;;;5020351;28;1156;-51
2021/07/18 10:46:01;;;;;;;;;;;;;;;;;;5014177;28;1651;-52
2021/07/18 10:48:46;;;;;;;;;;;;;;;;;;5020872;28;1366;-53
2021/07/18 10:51:21;;;;;;;;;;;;;;;;;;5017842;28;1962;-53
2021/07/18 10:53:46;;;;;;;;;;;;;;;;;;5015716;28;1520;-53
2021/07/18 10:56:15;;;;;;;;;;;;;;;;;;5018005;28;1503;-53
2021/07/18 10:58:40;;;;;;;;;;;;;;;;;;5002452;28;1439;-53
2021/07/18 11:01:11;;;;;;;;;;;;;;;;;;5018291;28;1443;-53
2021/07/18 11:03:42;;;;;;;;;;;;;;;;;;5018858;28;1607;-53
2021/07/18 11:06:27;;;;;;;;;;;;;;;;;;5016270;28;1572;-52
2021/07/18 11:09:12;;;;;;;;;;;;;;;;;;5019528;28;1279;-53
2021/07/18 11:11:40;;;;;;;;;;;;;;;;;;5009763;28;1764;-52
2021/07/18 11:14:24;;;;;;;;;;;;;;;;;;5016388;28;1355;-53
2021/07/18 11:16:49;;;;;;;;;;;;;;;;;;5018329;28;1138;-51
2021/07/18 11:19:33;;;;;;;;;;;;;;;;;;5017669;28;1529;-53
2021/07/18 11:21:58;;;;;;;;;;;;;;;;;;5021160;28;1150;-52
2021/07/18 11:24:44;;;;;;;;;;;;;;;;;;5015797;28;1817;-53
2021/07/18 11:27:25;;;;;;;;;;;;;;;;;;5020442;28;1125;-50
2021/07/18 11:29:51;;;;;;;;;;;;;;;;;;5020173;28;1899;-52
2021/07/18 11:32:23;;;;;;;;;;;;;;;;;;5019948;28;1182;-52
2021/07/18 11:34:48;;;;;;;;;;;;;;;;;;5014549;28;1595;-53
2021/07/18 11:37:16;;;;;;;;;;;;;;;;;;5019266;28;1212;-53
2021/07/18 11:39:44;;;;;;;;;;;;;;;;;;5013026;28;1594;-52
2021/07/18 11:42:10;;;;;;;;;;;;;;;;;;5020660;28;1125;-51
2021/07/18 11:44:35;;;;;;;;;;;;;;;;;;5016971;28;1314;-52
2021/07/18 11:47:01;;;;;;;;;;;;;;;;;;5017492;28;1153;-52
2021/07/18 11:49:27;;;;;;;;;;;;;;;;;;5015715;28;1977;-50
2021/07/18 11:51:52;;;;;;;;;;;;;;;;;;5020528;28;1106;-53
2021/07/18 11:54:17;;;;;;;;;;;;;;;;;;5014028;28;1559;-51
2021/07/18 11:56:43;;;;;;;;;;;;;;;;;;5018842;28;1023;-51
2021/07/18 11:59:12;;;;;;;;;;;;;;;;;;5026238;23;1506;-90
2021/07/18 12:01:38;;;;;;;;;;;;;;;;;;5015676;28;1480;-89
2021/07/18 12:04:04;;;;;;;;;;;;;;;;;;4969935;28;1471;-89
2021/07/18 12:06:32;;;;;;;;;;;;;;;;;;4994695;28;918;-89
2021/07/18 12:08:58;;;;;;;;;;;;;;;;;;4994012;28;1912;-89
2021/07/18 12:11:29;;;;;;;;;;;;;;;;;;4994280;28;1907;-91
2021/07/18 12:13:55;;;;;;;;;;;;;;;;;;4985552;28;1651;-88
2021/07/18 12:16:20;;;;;;;;;;;;;;;;;;5000088;28;1066;-88
2021/07/18 12:18:46;;;;;;;;;;;;;;;;;;4978916;28;1718;-87
2021/07/18 12:21:21;;;;;;;;;;;;;;;;;;4986475;28;1602;-88
2021/07/18 12:24:13;;;;;;;;;;;;;;;;;;4993952;28;1273;-87
2021/07/18 12:26:39;;;;;;;;;;;;;;;;;;4967152;28;2137;-87
2021/07/18 12:29:05;;;;;;;;;;;;;;;;;;5006590;28;1922;-87
2021/07/18 12:31:30;;;;;;;;;;;;;;;;;;4999561;28;992;-87
2021/07/18 12:33:55;;;;;;;;;;;;;;;;;;4995526;28;1209;-88
2021/07/18 12:36:21;;;;;;;;;;;;;;;;;;4982173;28;1738;-88
2021/07/18 12:38:46;;;;;;;;;;;;;;;;;;4994878;28;1173;-87
2021/07/18 12:41:11;;;;;;;;;;;;;;;;;;4994666;28;1499;-87
2021/07/18 12:43:37;;;;;;;;;;;;;;;;;;4999118;28;1268;-88
2021/07/18 12:46:03;;;;;;;;;;;;;;;;;;4997498;28;2011;-88
2021/07/18 12:48:31;;;;;;;;;;;;;;;;;;5000755;28;1701;-87
2021/07/18 12:50:56;;;;;;;;;;;;;;;;;;4999096;28;1879;-87
2021/07/18 12:53:21;;;;;;;;;;;;;;;;;;4994698;28;1296;-87
2021/07/18 12:55:58;;;;;;;;;;;;;;;;;;4994803;28;1201;-88
2021/07/18 12:58:24;;;;;;;;;;;;;;;;;;4998347;28;839;-87
2021/07/18 13:00:59;;;;;;;;;;;;;;;;;;4994536;28;1583;-88
2021/07/18 13:03:25;;;;;;;;;;;;;;;;;;4993116;28;1399;-87
2021/07/18 13:05:50;;;;;;;;;;;;;;;;;;4981758;28;881;-87
2021/07/18 13:08:33;;;;;;;;;;;;;;;;;;5001660;28;1173;-87
2021/07/18 13:10:59;;;;;;;;;;;;;;;;;;5003336;28;1903;-87
2021/07/18 13:13:29;;;;;;;;;;;;;;;;;;5017616;28;1224;-87
2021/07/18 13:16:03;;;;;;;;;;;;;;;;;;5018504;28;799;-88
2021/07/18 13:18:31;;;;;;;;;;;;;;;;;;5017374;28;1161;-87
2021/07/18 13:20:57;;;;;;;;;;;;;;;;;;4964226;28;1743;-87
2021/07/18 13:23:22;;;;;;;;;;;;;;;;;;4981027;28;1292;-87
2021/07/18 13:25:47;;;;;;;;;;;;;;;;;;4967867;28;1647;-88
2021/07/18 13:28:24;;;;;;;;;;;;;;;;;;4998442;28;1221;-87
2021/07/18 13:30:51;;;;;;;;;;;;;;;;;;4991442;28;1903;-87
2021/07/18 13:33:16;;;;;;;;;;;;;;;;;;4997717;28;1654;-87
2021/07/18 13:35:45;;;;;;;;;;;;;;;;;;4980560;28;1056;-87
2021/07/18 13:38:26;;;;;;;;;;;;;;;;;;4997368;28;1421;-87
2021/07/18 13:40:52;;;;;;;;;;;;;;;;;;4977151;28;1349;-87
2021/07/18 13:43:21;;;;;;;;;;;;;;;;;;4991735;28;1955;-87
2021/07/18 13:45:50;;;;;;;;;;;;;;;;;;4997950;28;1638;-87
2021/07/18 13:48:16;;;;;;;;;;;;;;;;;;4998030;28;831;-87
2021/07/18 13:50:41;;;;;;;;;;;;;;;;;;4997929;28;1940;-87
2021/07/18 13:53:07;;;;;;;;;;;;;;;;;;5005141;28;1316;-88
2021/07/18 13:55:33;;;;;;;;;;;;;;;;;;4990510;28;2003;-87
2021/07/18 13:57:59;;;;;;;;;;;;;;;;;;4961071;28;847;-87
2021/07/18 14:00:24;;;;;;;;;;;;;;;;;;4960719;28;1193;-88
2021/07/18 14:02:49;;;;;;;;;;;;;;;;;;5001999;28;1709;-87
2021/07/18 14:05:14;;;;;;;;;;;;;;;;;;4999115;28;2019;-87
2021/07/18 14:07:39;;;;;;;;;;;;;;;;;;4996461;28;1677;-87
2021/07/18 14:10:06;;;;;;;;;;;;;;;;;;4979847;28;2177;-87
2021/07/18 14:12:31;;;;;;;;;;;;;;;;;;4995908;28;1667;-87
2021/07/18 14:14:56;;;;;;;;;;;;;;;;;;4997692;28;1801;-87
2021/07/18 14:17:22;;;;;;;;;;;;;;;;;;4998818;28;1808;-87
2021/07/18 14:19:47;;;;;;;;;;;;;;;;;;5005039;28;1074;-88
2021/07/18 14:22:12;;;;;;;;;;;;;;;;;;5010672;28;1279;-87
2021/07/18 14:24:39;;;;;;;;;;;;;;;;;;4982149;28;1644;-87
2021/07/18 14:27:04;;;;;;;;;;;;;;;;;;5003855;28;1538;-88
2021/07/18 14:29:30;;;;;;;;;;;;;;;;;;4999709;28;1983;-87
2021/07/18 14:31:55;;;;;;;;;;;;;;;;;;5003597;28;1528;-87
2021/07/18 14:34:20;;;;;;;;;;;;;;;;;;4979277;28;1708;-87
2021/07/18 14:36:45;;;;;;;;;;;;;;;;;;5011467;28;1261;-87
2021/07/18 14:39:10;;;;;;;;;;;;;;;;;;4991530;28;1209;-88
2021/07/18 14:41:35;;;;;;;;;;;;;;;;;;4995532;28;1116;-87
2021/07/18 14:44:01;;;;;;;;;;;;;;;;;;4978459;28;1650;-87
2021/07/18 14:46:26;;;;;;;;;;;;;;;;;;4999222;28;1225;-87
2021/07/18 14:48:51;;;;;;;;;;;;;;;;;;4976735;28;1533;-87
2021/07/18 14:51:16;;;;;;;;;;;;;;;;;;4981247;28;1985;-87
2021/07/18 14:53:41;;;;;;;;;;;;;;;;;;4999495;28;1892;-87
2021/07/18 14:56:07;;;;;;;;;;;;;;;;;;4978764;28;1998;-87
2021/07/18 14:58:32;;;;;;;;;;;;;;;;;;4996197;28;1813;-87
2021/07/18 15:00:57;;;;;;;;;;;;;;;;;;4980557;28;964;-87
2021/07/18 15:03:23;;;;;;;;;;;;;;;;;;4979220;28;1916;-87
2021/07/18 15:05:48;;;;;;;;;;;;;;;;;;4978868;28;1085;-88
2021/07/18 15:08:13;;;;;;;;;;;;;;;;;;4996583;28;862;-90
2021/07/18 15:10:38;;;;;;;;;;;;;;;;;;4999948;28;1902;-89
2021/07/18 15:13:04;;;;;;;;;;;;;;;;;;4996282;28;1244;-89
2021/07/18 15:15:29;;;;;;;;;;;;;;;;;;4983147;28;1187;-89
2021/07/18 15:17:54;;;;;;;;;;;;;;;;;;5001869;28;1023;-89
2021/07/18 15:20:20;;;;;;;;;;;;;;;;;;5010965;28;950;-89
2021/07/18 15:22:45;;;;;;;;;;;;;;;;;;4997757;28;1296;-90
2021/07/18 15:25:10;;;;;;;;;;;;;;;;;;4977575;28;1949;-89
2021/07/18 15:27:36;;;;;;;;;;;;;;;;;;4999510;28;2035;-89
2021/07/18 15:30:01;;;;;;;;;;;;;;;;;;4961427;28;1922;-87
2021/07/18 15:32:26;;;;;;;;;;;;;;;;;;4986979;28;1675;-87
2021/07/18 15:34:52;;;;;;;;;;;;;;;;;;4990211;28;1638;-87
2021/07/18 15:37:17;;;;;;;;;;;;;;;;;;4977751;28;1983;-87
2021/07/18 15:39:42;;;;;;;;;;;;;;;;;;5005184;28;1557;-87
2021/07/18 15:42:07;;;;;;;;;;;;;;;;;;4995704;28;1261;-87
2021/07/18 15:44:33;;;;;;;;;;;;;;;;;;5000031;28;2015;-87
2021/07/18 15:46:58;;;;;;;;;;;;;;;;;;4995383;28;1778;-87
2021/07/18 15:49:23;;;;;;;;;;;;;;;;;;4997461;28;1960;-87
2021/07/18 15:51:48;;;;;;;;;;;;;;;;;;4982635;28;1035;-87
2021/07/18 15:54:13;;;;;;;;;;;;;;;;;;5008103;28;2018;-87
2021/07/18 15:56:39;;;;;;;;;;;;;;;;;;5015522;28;1037;-87
2021/07/18 15:59:04;;;;;;;;;;;;;;;;;;5000075;28;1570;-87
2021/07/18 16:01:29;;;;;;;;;;;;;;;;;;4978383;28;943;-87
2021/07/18 16:03:55;;;;;;;;;;;;;;;;;;4983418;28;1260;-87
2021/07/18 16:06:20;;;;;;;;;;;;;;;;;;5011349;28;1257;-87
2021/07/18 16:08:45;;;;;;;;;;;;;;;;;;4995404;28;807;-88
2021/07/18 16:11:10;;;;;;;;;;;;;;;;;;4995526;28;1910;-87
2021/07/18 16:13:35;;;;;;;;;;;;;;;;;;4994917;28;1999;-87
2021/07/18 16:16:00;;;;;;;;;;;;;;;;;;4995010;28;1939;-88
2021/07/18 16:18:26;;;;;;;;;;;;;;;;;;4995292;28;775;-87
2021/07/18 16:20:51;;;;;;;;;;;;;;;;;;4997575;28;1662;-87
2021/07/18 16:23:16;;;;;;;;;;;;;;;;;;5010906;28;1261;-89
2021/07/18 16:25:42;;;;;;;;;;;;;;;;;;4978528;28;2008;-89
2021/07/18 16:28:07;;;;;;;;;;;;;;;;;;4995798;28;1031;-89
2021/07/18 16:30:32;;;;;;;;;;;;;;;;;;4995587;28;1894;-89
2021/07/18 16:32:57;;;;;;;;;;;;;;;;;;5000400;28;1291;-89
2021/07/18 16:35:22;;;;;;;;;;;;;;;;;;5004874;28;1619;-89
2021/07/18 16:37:48;;;;;;;;;;;;;;;;;;5002789;28;1944;-89
2021/07/18 16:40:13;;;;;;;;;;;;;;;;;;5009741;28;1150;-89
2021/07/18 16:42:39;;;;;;;;;;;;;;;;;;5001865;28;1583;-89
2021/07/18 16:45:04;;;;;;;;;;;;;;;;;;4998469;28;1737;-89
2021/07/18 16:47:29;;;;;;;;;;;;;;;;;;5001031;28;866;-90
2021/07/18 16:49:55;;;;;;;;;;;;;;;;;;4980626;28;1966;-88
2021/07/18 16:52:20;;;;;;;;;;;;;;;;;;4999657;28;1258;-89
2021/07/18 16:54:47;;;;;;;;;;;;;;;;;;4998938;28;1009;-89
2021/07/18 16:57:12;;;;;;;;;;;;;;;;;;4999176;28;2033;-89